ENG ESP
Escola de Pilots
Telèfon 972234126 972 23 41 26
 
Aerbrava - meteorologia

Informació meteorològica aeronàutica

 

En aquest apartat apareix la informació meteorològica aeronàutica que és utilitzada a les pràctiques dels alumnes de l’Escola de Pilots del nostre centre durant la seva formació, pel que pot no ser actual i s’hauria d’utilitzar pel seu propi compte i risc. AERBRAVA no es fa responsable del seu ús.

 

TEMPS ACTUAL

Satèl·lit Meteorològic

sat24.com

Servei Meteorològic de Catalunya

 

LEGE 151800Z VRB02KT 9999 BKN060 11/01 Q1017
LEGE 151730Z 08004KT 9999 BKN065 11/01 Q1017
LEGE 151700Z 08006KT 9999 BKN060 12/00 Q1017
LEGE 151630Z 08006KT 050V110 9999 BKN060 12/M00 Q1017
LEGE 151600Z 08008KT 9999 BKN060 13/00 Q1017
LEGE 151530Z 06007KT 030V120 9999 FEW060 14/02 Q1017
LEGE 151500Z 09006KT 050V150 CAVOK 15/01 Q1017
LEGE 151430Z 10009KT 050V140 CAVOK 15/02 Q1017
TAF LEGE 151700Z 1518/1618 06008KT 9999 FEW050 TX15/1613Z TN06/1606Z   BECMG 1518/1520 34006KT   BECMG 1606/1608 04012KT   BECMG 1616/1618 32006KT

Aviation Weather

 
Aerbrava en el facebook Aerbrava en el twitter Aerbrava instagram Aerbrava en el youtube Aerbrava tumblr Aerbrava flikr Aerbrava pinterest

¡html Vàlid! ¡CSS Vàlid!